sensor_id;sensor_type;location;lat;lon;timestamp;pressure;altitude;pressure_sealevel;temperature;humidity
50790;BME280;37287;47.554;7.844;2022-11-14T00:01:10;97859.91;;;4.85;100.00
50790;BME280;37287;47.554;7.844;2022-11-14T00:03:37;97855.31;;;4.86;100.00
50790;BME280;37287;47.554;7.844;2022-11-14T00:06:06;97857.22;;;4.85;100.00
50790;BME280;37287;47.554;7.844;2022-11-14T00:08:33;97854.97;;;4.87;100.00
50790;BME280;37287;47.554;7.844;2022-11-14T00:11:00;97850.38;;;4.88;100.00
50790;BME280;37287;47.554;7.844;2022-11-14T00:13:31;97845.00;;;4.88;100.00
50790;BME280;37287;47.554;7.844;2022-11-14T00:16:00;97847.94;;;4.82;100.00
50790;BME280;37287;47.554;7.844;2022-11-14T00:18:27;97837.63;;;4.85;100.00
50790;BME280;37287;47.554;7.844;2022-11-14T00:20:54;97832.63;;;4.83;100.00
50790;BME280;37287;47.554;7.844;2022-11-14T00:23:20;97831.94;;;4.86;100.00
50790;BME280;37287;47.554;7.844;2022-11-14T00:25:47;97842.00;;;4.89;100.00
50790;BME280;37287;47.554;7.844;2022-11-14T00:28:15;97840.09;;;4.90;100.00
50790;BME280;37287;47.554;7.844;2022-11-14T00:30:46;97830.13;;;4.90;100.00
50790;BME280;37287;47.554;7.844;2022-11-14T00:33:14;97832.06;;;4.90;100.00
50790;BME280;37287;47.554;7.844;2022-11-14T00:35:54;97826.00;;;4.93;100.00
50790;BME280;37287;47.554;7.844;2022-11-14T00:38:22;97842.09;;;4.93;100.00
50790;BME280;37287;47.554;7.844;2022-11-14T00:40:49;97830.59;;;4.92;100.00
50790;BME280;37287;47.554;7.844;2022-11-14T00:43:15;97828.25;;;4.91;100.00
50790;BME280;37287;47.554;7.844;2022-11-14T00:45:46;97818.97;;;4.88;100.00
50790;BME280;37287;47.554;7.844;2022-11-14T00:48:13;97814.38;;;4.89;100.00
50790;BME280;37287;47.554;7.844;2022-11-14T00:50:41;97809.69;;;4.86;100.00
50790;BME280;37287;47.554;7.844;2022-11-14T00:53:08;97802.78;;;4.85;100.00
50790;BME280;37287;47.554;7.844;2022-11-14T00:55:36;97802.19;;;4.91;100.00
50790;BME280;37287;47.554;7.844;2022-11-14T00:58:04;97789.56;;;4.92;100.00
50790;BME280;37287;47.554;7.844;2022-11-14T01:00:31;97788.00;;;4.91;100.00
50790;BME280;37287;47.554;7.844;2022-11-14T01:02:58;97781.50;;;4.92;100.00
50790;BME280;37287;47.554;7.844;2022-11-14T01:05:24;97778.75;;;4.88;100.00
50790;BME280;37287;47.554;7.844;2022-11-14T01:07:51;97787.91;;;4.87;100.00
50790;BME280;37287;47.554;7.844;2022-11-14T01:10:18;97790.59;;;4.87;100.00
50790;BME280;37287;47.554;7.844;2022-11-14T01:12:46;97781.75;;;4.87;100.00
50790;BME280;37287;47.554;7.844;2022-11-14T01:15:13;97764.44;;;4.84;100.00
50790;BME280;37287;47.554;7.844;2022-11-14T01:17:41;97771.59;;;4.80;100.00
50790;BME280;37287;47.554;7.844;2022-11-14T01:20:07;97765.00;;;4.77;100.00
50790;BME280;37287;47.554;7.844;2022-11-14T01:22:34;97751.94;;;4.76;100.00
50790;BME280;37287;47.554;7.844;2022-11-14T01:25:05;97769.16;;;4.75;100.00
50790;BME280;37287;47.554;7.844;2022-11-14T01:27:32;97763.44;;;4.76;100.00
50790;BME280;37287;47.554;7.844;2022-11-14T01:29:58;97751.94;;;4.76;100.00
50790;BME280;37287;47.554;7.844;2022-11-14T01:32:27;97741.91;;;4.73;100.00
50790;BME280;37287;47.554;7.844;2022-11-14T01:34:55;97750.72;;;4.73;100.00
50790;BME280;37287;47.554;7.844;2022-11-14T01:37:26;97743.13;;;4.75;100.00
50790;BME280;37287;47.554;7.844;2022-11-14T01:39:54;97731.25;;;4.76;100.00
50790;BME280;37287;47.554;7.844;2022-11-14T01:42:21;97748.16;;;4.77;100.00
50790;BME280;37287;47.554;7.844;2022-11-14T01:44:52;97738.31;;;4.81;100.00
50790;BME280;37287;47.554;7.844;2022-11-14T01:47:22;97738.31;;;4.81;100.00
50790;BME280;37287;47.554;7.844;2022-11-14T01:49:53;97743.22;;;4.79;100.00
50790;BME280;37287;47.554;7.844;2022-11-14T01:52:27;97722.97;;;4.81;100.00
50790;BME280;37287;47.554;7.844;2022-11-14T01:54:58;97722.63;;;4.83;100.00
50790;BME280;37287;47.554;7.844;2022-11-14T01:57:30;97710.78;;;4.84;100.00
50790;BME280;37287;47.554;7.844;2022-11-14T02:00:02;97713.03;;;4.82;100.00
50790;BME280;37287;47.554;7.844;2022-11-14T02:02:31;97708.81;;;4.81;100.00
50790;BME280;37287;47.554;7.844;2022-11-14T02:05:03;97708.13;;;4.84;100.00
50790;BME280;37287;47.554;7.844;2022-11-14T02:07:33;97700.41;;;4.82;100.00
50790;BME280;37287;47.554;7.844;2022-11-14T02:10:20;97696.94;;;4.82;100.00
50790;BME280;37287;47.554;7.844;2022-11-14T02:12:49;97693.13;;;4.83;100.00
50790;BME280;37287;47.554;7.844;2022-11-14T02:15:21;97680.53;;;4.84;100.00
50790;BME280;37287;47.554;7.844;2022-11-14T02:17:47;97689.75;;;4.86;100.00
50790;BME280;37287;47.554;7.844;2022-11-14T02:20:47;97690.91;;;4.85;100.00
50790;BME280;37287;47.554;7.844;2022-11-14T02:23:26;97691.69;;;4.86;100.00
50790;BME280;37287;47.554;7.844;2022-11-14T02:25:54;97685.19;;;4.87;100.00
50790;BME280;37287;47.554;7.844;2022-11-14T02:28:24;97688.66;;;4.87;100.00
50790;BME280;37287;47.554;7.844;2022-11-14T02:30:51;97681.72;;;4.86;100.00
50790;BME280;37287;47.554;7.844;2022-11-14T02:33:17;97689.75;;;4.86;100.00
50790;BME280;37287;47.554;7.844;2022-11-14T02:35:44;97677.91;;;4.87;100.00
50790;BME280;37287;47.554;7.844;2022-11-14T02:38:12;97700.25;;;4.91;100.00
50790;BME280;37287;47.554;7.844;2022-11-14T02:40:39;97681.91;;;4.93;100.00
50790;BME280;37287;47.554;7.844;2022-11-14T02:43:05;97681.91;;;4.93;100.00
50790;BME280;37287;47.554;7.844;2022-11-14T02:45:32;97679.69;;;4.95;100.00
50790;BME280;37287;47.554;7.844;2022-11-14T02:47:59;97676.66;;;4.97;100.00
50790;BME280;37287;47.554;7.844;2022-11-14T02:50:27;97670.50;;;4.96;100.00
50790;BME280;37287;47.554;7.844;2022-11-14T02:52:55;97673.63;;;4.98;100.00
50790;BME280;37287;47.554;7.844;2022-11-14T02:55:22;97674.72;;;4.97;100.00
50790;BME280;37287;47.554;7.844;2022-11-14T02:57:48;97673.72;;;5.02;100.00
50790;BME280;37287;47.554;7.844;2022-11-14T03:00:15;97674.50;;;5.03;100.00
50790;BME280;37287;47.554;7.844;2022-11-14T03:02:42;97665.50;;;5.11;100.00
50790;BME280;37287;47.554;7.844;2022-11-14T03:05:09;97657.88;;;5.13;100.00
50790;BME280;37287;47.554;7.844;2022-11-14T03:07:36;97664.81;;;5.14;100.00
50790;BME280;37287;47.554;7.844;2022-11-14T03:10:03;97660.66;;;5.16;100.00
50790;BME280;37287;47.554;7.844;2022-11-14T03:12:30;97671.13;;;5.22;100.00
50790;BME280;37287;47.554;7.844;2022-11-14T03:14:58;97663.97;;;5.26;100.00
50790;BME280;37287;47.554;7.844;2022-11-14T03:17:25;97660.50;;;5.25;100.00
50790;BME280;37287;47.554;7.844;2022-11-14T03:19:51;97685.00;;;5.24;100.00
50790;BME280;37287;47.554;7.844;2022-11-14T03:22:24;97662.06;;;5.26;100.00
50790;BME280;37287;47.554;7.844;2022-11-14T03:24:51;97677.47;;;5.29;100.00
50790;BME280;37287;47.554;7.844;2022-11-14T03:27:18;97646.84;;;5.30;100.00
50790;BME280;37287;47.554;7.844;2022-11-14T03:29:48;97664.94;;;5.33;100.00
50790;BME280;37287;47.554;7.844;2022-11-14T03:32:15;97668.13;;;5.39;100.00
50790;BME280;37287;47.554;7.844;2022-11-14T03:34:41;97669.78;;;5.44;100.00
50790;BME280;37287;47.554;7.844;2022-11-14T03:37:09;97670.22;;;5.46;100.00
50790;BME280;37287;47.554;7.844;2022-11-14T03:39:35;97663.81;;;5.50;100.00
50790;BME280;37287;47.554;7.844;2022-11-14T03:42:04;97668.81;;;5.52;100.00
50790;BME280;37287;47.554;7.844;2022-11-14T03:44:34;97670.13;;;5.58;100.00
50790;BME280;37287;47.554;7.844;2022-11-14T03:47:00;97658.00;;;5.64;100.00
50790;BME280;37287;47.554;7.844;2022-11-14T03:49:27;97665.00;;;5.69;100.00
50790;BME280;37287;47.554;7.844;2022-11-14T03:51:54;97659.44;;;5.78;100.00
50790;BME280;37287;47.554;7.844;2022-11-14T03:54:20;97654.94;;;5.82;100.00
50790;BME280;37287;47.554;7.844;2022-11-14T03:56:47;97669.25;;;5.86;100.00
50790;BME280;37287;47.554;7.844;2022-11-14T03:59:15;97666.72;;;5.93;100.00
50790;BME280;37287;47.554;7.844;2022-11-14T04:01:44;97658.66;;;5.93;100.00
50790;BME280;37287;47.554;7.844;2022-11-14T04:04:11;97658.66;;;5.93;100.00
50790;BME280;37287;47.554;7.844;2022-11-14T04:06:38;97672.09;;;5.93;100.00
50790;BME280;37287;47.554;7.844;2022-11-14T04:09:04;97664.47;;;5.95;100.00
50790;BME280;37287;47.554;7.844;2022-11-14T04:11:31;97671.38;;;5.96;100.00
50790;BME280;37287;47.554;7.844;2022-11-14T04:13:58;97666.13;;;6.00;100.00
50790;BME280;37287;47.554;7.844;2022-11-14T04:16:25;97667.69;;;6.01;100.00
50790;BME280;37287;47.554;7.844;2022-11-14T04:18:51;97674.59;;;6.02;100.00
50790;BME280;37287;47.554;7.844;2022-11-14T04:21:19;97676.94;;;6.03;100.00
50790;BME280;37287;47.554;7.844;2022-11-14T04:23:46;97670.88;;;6.07;100.00
50790;BME280;37287;47.554;7.844;2022-11-14T04:26:13;97658.63;;;6.09;100.00
50790;BME280;37287;47.554;7.844;2022-11-14T04:28:41;97690.56;;;6.11;100.00
50790;BME280;37287;47.554;7.844;2022-11-14T04:31:08;97661.78;;;6.11;100.00
50790;BME280;37287;47.554;7.844;2022-11-14T04:33:34;97661.00;;;6.11;100.00
50790;BME280;37287;47.554;7.844;2022-11-14T04:36:03;97680.13;;;6.09;100.00
50790;BME280;37287;47.554;7.844;2022-11-14T04:38:30;97664.81;;;6.10;100.00
50790;BME280;37287;47.554;7.844;2022-11-14T04:40:57;97645.19;;;6.09;100.00
50790;BME280;37287;47.554;7.844;2022-11-14T04:43:25;97659.44;;;6.10;100.00
50790;BME280;37287;47.554;7.844;2022-11-14T04:45:54;97662.13;;;6.10;100.00
50790;BME280;37287;47.554;7.844;2022-11-14T04:48:23;97661.78;;;6.11;100.00
50790;BME280;37287;47.554;7.844;2022-11-14T04:50:51;97665.31;;;6.15;100.00
50790;BME280;37287;47.554;7.844;2022-11-14T04:53:18;97669.22;;;6.18;100.00
50790;BME280;37287;47.554;7.844;2022-11-14T04:55:44;97665.72;;;6.17;100.00
50790;BME280;37287;47.554;7.844;2022-11-14T04:58:13;97659.59;;;6.17;100.00
50790;BME280;37287;47.554;7.844;2022-11-14T05:00:40;97675.34;;;6.18;100.00
50790;BME280;37287;47.554;7.844;2022-11-14T05:03:07;97650.03;;;6.19;100.00
50790;BME280;37287;47.554;7.844;2022-11-14T05:05:35;97650.53;;;6.25;100.00
50790;BME280;37287;47.554;7.844;2022-11-14T05:08:07;97651.25;;;6.22;100.00
50790;BME280;37287;47.554;7.844;2022-11-14T05:10:34;97652.38;;;6.21;100.00
50790;BME280;37287;47.554;7.844;2022-11-14T05:13:00;97659.22;;;6.18;100.00
50790;BME280;37287;47.554;7.844;2022-11-14T05:15:27;97653.84;;;6.18;100.00
50790;BME280;37287;47.554;7.844;2022-11-14T05:17:56;97650.41;;;6.18;100.00
50790;BME280;37287;47.554;7.844;2022-11-14T05:20:27;97653.84;;;6.18;100.00
50790;BME280;37287;47.554;7.844;2022-11-14T05:22:54;97653.44;;;6.16;100.00
50790;BME280;37287;47.554;7.844;2022-11-14T05:25:22;97652.28;;;6.17;100.00
50790;BME280;37287;47.554;7.844;2022-11-14T05:27:50;97643.88;;;6.19;100.00
50790;BME280;37287;47.554;7.844;2022-11-14T05:30:17;97651.94;;;6.19;100.00
50790;BME280;37287;47.554;7.844;2022-11-14T05:32:43;97646.56;;;6.19;100.00
50790;BME280;37287;47.554;7.844;2022-11-14T05:35:12;97655.41;;;6.19;100.00
50790;BME280;37287;47.554;7.844;2022-11-14T05:37:39;97648.13;;;6.20;100.00
50790;BME280;37287;47.554;7.844;2022-11-14T05:40:05;97658.53;;;6.22;100.00
50790;BME280;37287;47.554;7.844;2022-11-14T05:42:34;97656.63;;;6.22;100.00
50790;BME280;37287;47.554;7.844;2022-11-14T05:45:03;97658.16;;;6.23;100.00
50790;BME280;37287;47.554;7.844;2022-11-14T05:47:29;97666.69;;;6.25;100.00
50790;BME280;37287;47.554;7.844;2022-11-14T05:49:56;97649.75;;;6.25;100.00
50790;BME280;37287;47.554;7.844;2022-11-14T05:52:22;97659.03;;;6.27;100.00
50790;BME280;37287;47.554;7.844;2022-11-14T05:54:49;97664.41;;;6.27;100.00
50790;BME280;37287;47.554;7.844;2022-11-14T05:57:20;97646.38;;;6.28;100.00
50790;BME280;37287;47.554;7.844;2022-11-14T05:59:46;97659.81;;;6.28;100.00
50790;BME280;37287;47.554;7.844;2022-11-14T06:02:13;97651.41;;;6.29;100.00
50790;BME280;37287;47.554;7.844;2022-11-14T06:04:40;97658.31;;;6.30;100.00
50790;BME280;37287;47.554;7.844;2022-11-14T06:07:06;97648.34;;;6.31;100.00
50790;BME280;37287;47.554;7.844;2022-11-14T06:09:33;97650.69;;;6.32;100.00
50790;BME280;37287;47.554;7.844;2022-11-14T06:12:01;97635.78;;;6.35;100.00
50790;BME280;37287;47.554;7.844;2022-11-14T06:14:31;97641.34;;;6.46;100.00
50790;BME280;37287;47.554;7.844;2022-11-14T06:16:58;97634.94;;;6.50;100.00
50790;BME280;37287;47.554;7.844;2022-11-14T06:19:26;97642.19;;;6.50;100.00
50790;BME280;37287;47.554;7.844;2022-11-14T06:21:53;97641.06;;;6.51;100.00
50790;BME280;37287;47.554;7.844;2022-11-14T06:24:19;97642.34;;;6.57;100.00
50790;BME280;37287;47.554;7.844;2022-11-14T06:26:47;97639.88;;;6.68;100.00
50790;BME280;37287;47.554;7.844;2022-11-14T06:29:14;97640.94;;;6.83;100.00
50790;BME280;37287;47.554;7.844;2022-11-14T06:31:41;97646.13;;;6.95;100.00
50790;BME280;37287;47.554;7.844;2022-11-14T06:34:12;97650.09;;;7.01;100.00
50790;BME280;37287;47.554;7.844;2022-11-14T06:36:38;97640.94;;;7.06;100.00
50790;BME280;37287;47.554;7.844;2022-11-14T06:39:05;97649.06;;;7.10;100.00
50790;BME280;37287;47.554;7.844;2022-11-14T06:41:33;97652.59;;;7.14;100.00
50790;BME280;37287;47.554;7.844;2022-11-14T06:44:01;97646.66;;;7.24;100.00
50790;BME280;37287;47.554;7.844;2022-11-14T06:46:28;97648.84;;;7.42;100.00
50790;BME280;37287;47.554;7.844;2022-11-14T06:48:55;97654.06;;;7.54;100.00
50790;BME280;37287;47.554;7.844;2022-11-14T06:51:21;97647.75;;;7.69;100.00
50790;BME280;37287;47.554;7.844;2022-11-14T06:53:48;97652.59;;;7.83;100.00
50790;BME280;37287;47.554;7.844;2022-11-14T06:56:21;97640.00;;;7.91;100.00
50790;BME280;37287;47.554;7.844;2022-11-14T06:58:48;97658.09;;;8.17;100.00
50790;BME280;37287;47.554;7.844;2022-11-14T07:01:20;97658.09;;;8.48;100.00
50790;BME280;37287;47.554;7.844;2022-11-14T07:03:49;97649.69;;;8.53;100.00
50790;BME280;37287;47.554;7.844;2022-11-14T07:06:19;97645.06;;;8.87;100.00
50790;BME280;37287;47.554;7.844;2022-11-14T07:08:46;97662.09;;;9.29;100.00
50790;BME280;37287;47.554;7.844;2022-11-14T07:11:15;97658.38;;;9.48;99.42
50790;BME280;37287;47.554;7.844;2022-11-14T07:13:52;97654.59;;;9.56;96.95
50790;BME280;37287;47.554;7.844;2022-11-14T07:16:22;97662.38;;;9.65;95.74
50790;BME280;37287;47.554;7.844;2022-11-14T07:18:51;97663.59;;;9.75;94.45
50790;BME280;37287;47.554;7.844;2022-11-14T07:21:18;97669.06;;;9.78;93.72
50790;BME280;37287;47.554;7.844;2022-11-14T07:23:46;97673.00;;;9.88;93.94
50790;BME280;37287;47.554;7.844;2022-11-14T07:26:12;97669.91;;;9.90;91.79
50790;BME280;37287;47.554;7.844;2022-11-14T07:28:41;97675.31;;;9.93;90.93
50790;BME280;37287;47.554;7.844;2022-11-14T07:31:19;97680.72;;;9.90;92.07
50790;BME280;37287;47.554;7.844;2022-11-14T07:33:46;97675.69;;;9.88;91.83
50790;BME280;37287;47.554;7.844;2022-11-14T07:36:15;97679.97;;;9.93;91.32
50790;BME280;37287;47.554;7.844;2022-11-14T07:38:42;97684.91;;;9.84;92.88
50790;BME280;37287;47.554;7.844;2022-11-14T07:41:11;97679.06;;;9.74;94.95
50790;BME280;37287;47.554;7.844;2022-11-14T07:43:40;97677.78;;;9.57;95.67
50790;BME280;37287;47.554;7.844;2022-11-14T07:46:35;97685.38;;;9.44;96.31
50790;BME280;37287;47.554;7.844;2022-11-14T07:49:04;97687.50;;;9.24;98.32
50790;BME280;37287;47.554;7.844;2022-11-14T07:51:31;97678.84;;;9.08;100.00
50790;BME280;37287;47.554;7.844;2022-11-14T07:53:57;97683.38;;;9.00;100.00
50790;BME280;37287;47.554;7.844;2022-11-14T07:56:25;97693.06;;;8.71;100.00
50790;BME280;37287;47.554;7.844;2022-11-14T07:58:52;97687.38;;;8.46;100.00
50790;BME280;37287;47.554;7.844;2022-11-14T08:01:20;97697.44;;;8.22;100.00
50790;BME280;37287;47.554;7.844;2022-11-14T08:03:58;97709.44;;;8.01;100.00
50790;BME280;37287;47.554;7.844;2022-11-14T08:06:25;97692.03;;;7.95;100.00
50790;BME280;37287;47.554;7.844;2022-11-14T08:08:51;97694.31;;;7.93;100.00
50790;BME280;37287;47.554;7.844;2022-11-14T08:11:18;97696.13;;;7.85;100.00
50790;BME280;37287;47.554;7.844;2022-11-14T08:14:05;97694.16;;;7.82;100.00
50790;BME280;37287;47.554;7.844;2022-11-14T08:16:32;97707.53;;;7.75;100.00
50790;BME280;37287;47.554;7.844;2022-11-14T08:18:59;97706.22;;;7.65;100.00
50790;BME280;37287;47.554;7.844;2022-11-14T08:21:26;97701.47;;;7.58;100.00
50790;BME280;37287;47.554;7.844;2022-11-14T08:23:54;97705.63;;;7.52;100.00
50790;BME280;37287;47.554;7.844;2022-11-14T08:26:22;97698.19;;;7.46;100.00
50790;BME280;37287;47.554;7.844;2022-11-14T08:28:52;97705.41;;;7.42;100.00
50790;BME280;37287;47.554;7.844;2022-11-14T08:31:23;97698.47;;;7.40;100.00
50790;BME280;37287;47.554;7.844;2022-11-14T08:33:51;97705.06;;;7.43;100.00
50790;BME280;37287;47.554;7.844;2022-11-14T08:36:17;97711.09;;;7.36;100.00
50790;BME280;37287;47.554;7.844;2022-11-14T08:38:46;97709.19;;;7.37;100.00
50790;BME280;37287;47.554;7.844;2022-11-14T08:41:16;97703.31;;;7.31;100.00
50790;BME280;37287;47.554;7.844;2022-11-14T08:43:43;97707.03;;;7.23;100.00
50790;BME280;37287;47.554;7.844;2022-11-14T08:46:09;97721.19;;;7.20;100.00
50790;BME280;37287;47.554;7.844;2022-11-14T08:48:36;97725.44;;;7.21;100.00
50790;BME280;37287;47.554;7.844;2022-11-14T08:51:04;97720.03;;;7.21;100.00
50790;BME280;37287;47.554;7.844;2022-11-14T08:53:33;97726.22;;;7.21;100.00
50790;BME280;37287;47.554;7.844;2022-11-14T08:56:00;97722.47;;;7.26;100.00
50790;BME280;37287;47.554;7.844;2022-11-14T08:58:28;97724.03;;;7.27;100.00
50790;BME280;37287;47.554;7.844;2022-11-14T09:01:14;97719.41;;;7.28;100.00
50790;BME280;37287;47.554;7.844;2022-11-14T09:03:40;97723.72;;;7.32;100.00
50790;BME280;37287;47.554;7.844;2022-11-14T09:06:11;97714.88;;;7.32;100.00
50790;BME280;37287;47.554;7.844;2022-11-14T09:08:40;97716.00;;;7.31;100.00
50790;BME280;37287;47.554;7.844;2022-11-14T09:11:07;97718.00;;;7.34;100.00
50790;BME280;37287;47.554;7.844;2022-11-14T09:13:36;97731.50;;;7.37;100.00
50790;BME280;37287;47.554;7.844;2022-11-14T09:16:03;97726.13;;;7.37;100.00
50790;BME280;37287;47.554;7.844;2022-11-14T09:18:30;97722.31;;;7.38;100.00
50790;BME280;37287;47.554;7.844;2022-11-14T09:21:03;97718.16;;;7.45;100.00
50790;BME280;37287;47.554;7.844;2022-11-14T09:23:30;97733.59;;;7.48;100.00
50790;BME280;37287;47.554;7.844;2022-11-14T09:26:05;97723.66;;;7.52;100.00
50790;BME280;37287;47.554;7.844;2022-11-14T09:28:32;97725.25;;;7.53;100.00
50790;BME280;37287;47.554;7.844;2022-11-14T09:31:09;97732.91;;;7.51;100.00
50790;BME280;37287;47.554;7.844;2022-11-14T09:33:36;97732.06;;;7.47;100.00
50790;BME280;37287;47.554;7.844;2022-11-14T09:36:05;97727.38;;;7.44;100.00
50790;BME280;37287;47.554;7.844;2022-11-14T09:38:33;97736.50;;;7.35;100.00
50790;BME280;37287;47.554;7.844;2022-11-14T09:46:42;97727.97;;;7.33;100.00
50790;BME280;37287;47.554;7.844;2022-11-14T09:49:36;97727.59;;;7.35;100.00
50790;BME280;37287;47.554;7.844;2022-11-14T09:52:16;97741.16;;;7.38;100.00
50790;BME280;37287;47.554;7.844;2022-11-14T09:54:58;97740.56;;;7.49;100.00
50790;BME280;37287;47.554;7.844;2022-11-14T09:57:26;97741.28;;;7.46;100.00
50790;BME280;37287;47.554;7.844;2022-11-14T09:59:56;97745.06;;;7.41;100.00
50790;BME280;37287;47.554;7.844;2022-11-14T10:02:39;97743.63;;;7.47;100.00
50790;BME280;37287;47.554;7.844;2022-11-14T10:11:04;97755.22;;;7.51;100.00
50790;BME280;37287;47.554;7.844;2022-11-14T10:13:43;97749.13;;;7.54;100.00
50790;BME280;37287;47.554;7.844;2022-11-14T10:16:49;97744.66;;;7.62;100.00
50790;BME280;37287;47.554;7.844;2022-11-14T10:19:28;97751.56;;;7.63;100.00
50790;BME280;37287;47.554;7.844;2022-11-14T10:22:33;97756.03;;;7.75;100.00
50790;BME280;37287;47.554;7.844;2022-11-14T10:25:25;97754.66;;;7.85;100.00
50790;BME280;37287;47.554;7.844;2022-11-14T10:28:21;97762.75;;;7.85;100.00
50790;BME280;37287;47.554;7.844;2022-11-14T10:31:08;97770.03;;;7.84;100.00
50790;BME280;37287;47.554;7.844;2022-11-14T10:34:03;97758.19;;;7.89;100.00
50790;BME280;37287;47.554;7.844;2022-11-14T10:36:48;97761.28;;;7.91;100.00
50790;BME280;37287;47.554;7.844;2022-11-14T10:41:55;97760.56;;;7.94;100.00
50790;BME280;37287;47.554;7.844;2022-11-14T10:44:36;97757.56;;;7.99;100.00
50790;BME280;37287;47.554;7.844;2022-11-14T10:47:11;97759.91;;;8.01;100.00
50790;BME280;37287;47.554;7.844;2022-11-14T10:49:45;97757.38;;;8.12;100.00
50790;BME280;37287;47.554;7.844;2022-11-14T10:52:15;97760.19;;;8.19;100.00
50790;BME280;37287;47.554;7.844;2022-11-14T10:54:51;97766.75;;;8.21;100.00
50790;BME280;37287;47.554;7.844;2022-11-14T10:57:22;97777.63;;;8.25;100.00
50790;BME280;37287;47.554;7.844;2022-11-14T10:59:50;97761.06;;;8.26;100.00
50790;BME280;37287;47.554;7.844;2022-11-14T11:02:18;97756.44;;;8.27;100.00
50790;BME280;37287;47.554;7.844;2022-11-14T11:04:45;97759.19;;;8.31;100.00
50790;BME280;37287;47.554;7.844;2022-11-14T11:07:23;97743.91;;;8.38;100.00
50790;BME280;37287;47.554;7.844;2022-11-14T11:10:20;97762.19;;;8.49;100.00
50790;BME280;37287;47.554;7.844;2022-11-14T11:13:11;97749.94;;;8.55;100.00
50790;BME280;37287;47.554;7.844;2022-11-14T11:15:40;97745.81;;;8.65;100.00
50790;BME280;37287;47.554;7.844;2022-11-14T11:18:26;97740.16;;;8.73;100.00
50790;BME280;37287;47.554;7.844;2022-11-14T11:21:11;97733.31;;;8.80;100.00
50790;BME280;37287;47.554;7.844;2022-11-14T11:23:56;97747.19;;;8.82;100.00
50790;BME280;37287;47.554;7.844;2022-11-14T11:26:29;97740.69;;;8.86;100.00
50790;BME280;37287;47.554;7.844;2022-11-14T11:34:22;97738.44;;;8.92;100.00
50790;BME280;37287;47.554;7.844;2022-11-14T11:36:54;97740.00;;;8.93;100.00
50790;BME280;37287;47.554;7.844;2022-11-14T11:39:29;97750.88;;;9.00;100.00
50790;BME280;37287;47.554;7.844;2022-11-14T11:42:00;97748.63;;;9.02;100.00
50790;BME280;37287;47.554;7.844;2022-11-14T11:44:41;97741.72;;;9.08;100.00
50790;BME280;37287;47.554;7.844;2022-11-14T11:47:12;97746.06;;;9.17;100.00
50790;BME280;37287;47.554;7.844;2022-11-14T11:49:44;97741.88;;;9.23;100.00
50790;BME280;37287;47.554;7.844;2022-11-14T11:52:31;97744.59;;;9.23;100.00
50790;BME280;37287;47.554;7.844;2022-11-14T11:55:01;97743.06;;;9.22;100.00
50790;BME280;37287;47.554;7.844;2022-11-14T11:57:40;97743.84;;;9.26;100.00
50790;BME280;37287;47.554;7.844;2022-11-14T12:00:18;97755.44;;;9.26;100.00
50790;BME280;37287;47.554;7.844;2022-11-14T12:02:50;97745.00;;;9.25;100.00
50790;BME280;37287;47.554;7.844;2022-11-14T12:05:39;97743.81;;;9.22;100.00
50790;BME280;37287;47.554;7.844;2022-11-14T12:08:20;97740.00;;;9.27;100.00
50790;BME280;37287;47.554;7.844;2022-11-14T12:10:50;97746.28;;;9.38;100.00
50790;BME280;37287;47.554;7.844;2022-11-14T12:13:43;97758.34;;;9.44;100.00
50790;BME280;37287;47.554;7.844;2022-11-14T12:19:11;97753.41;;;9.54;100.00
50790;BME280;37287;47.554;7.844;2022-11-14T12:22:07;97757.31;;;9.60;100.00
50790;BME280;37287;47.554;7.844;2022-11-14T12:30:09;97750.16;;;9.78;100.00
50790;BME280;37287;47.554;7.844;2022-11-14T12:32:43;97760.25;;;9.85;100.00
50790;BME280;37287;47.554;7.844;2022-11-14T12:35:28;97763.38;;;9.91;100.00
50790;BME280;37287;47.554;7.844;2022-11-14T12:37:56;97753.78;;;9.97;100.00
50790;BME280;37287;47.554;7.844;2022-11-14T12:40:40;97767.69;;;9.99;100.00
50790;BME280;37287;47.554;7.844;2022-11-14T12:43:34;97761.53;;;9.98;100.00
50790;BME280;37287;47.554;7.844;2022-11-14T12:46:07;97766.56;;;10.04;100.00
50790;BME280;37287;47.554;7.844;2022-11-14T12:48:45;97771.63;;;10.05;100.00
50790;BME280;37287;47.554;7.844;2022-11-14T12:53:54;97768.94;;;10.05;100.00
50790;BME280;37287;47.554;7.844;2022-11-14T12:56:49;97773.16;;;10.06;100.00
50790;BME280;37287;47.554;7.844;2022-11-14T12:59:27;97776.25;;;10.01;100.00
50790;BME280;37287;47.554;7.844;2022-11-14T13:02:30;97781.66;;;10.01;100.00
50790;BME280;37287;47.554;7.844;2022-11-14T13:07:50;97778.28;;;9.70;100.00
50790;BME280;37287;47.554;7.844;2022-11-14T13:10:36;97776.59;;;9.55;100.00
50790;BME280;37287;47.554;7.844;2022-11-14T13:13:07;97771.84;;;9.44;100.00
50790;BME280;37287;47.554;7.844;2022-11-14T13:15:54;97778.72;;;9.38;100.00
50790;BME280;37287;47.554;7.844;2022-11-14T13:18:55;97775.94;;;9.31;100.00
50790;BME280;37287;47.554;7.844;2022-11-14T13:27:26;97776.19;;;9.19;100.00
50790;BME280;37287;47.554;7.844;2022-11-14T13:30:13;97776.19;;;9.19;100.00
50790;BME280;37287;47.554;7.844;2022-11-14T13:35:15;97768.06;;;9.19;100.00
50790;BME280;37287;47.554;7.844;2022-11-14T13:43:00;97767.38;;;9.22;100.00
50790;BME280;37287;47.554;7.844;2022-11-14T13:45:39;97770.06;;;9.22;100.00
50790;BME280;37287;47.554;7.844;2022-11-14T13:51:16;97775.41;;;9.18;100.00
50790;BME280;37287;47.554;7.844;2022-11-14T13:54:10;97766.50;;;9.14;100.00
50790;BME280;37287;47.554;7.844;2022-11-14T13:57:16;97778.47;;;9.17;100.00
50790;BME280;37287;47.554;7.844;2022-11-14T14:00:07;97779.22;;;9.14;100.00
50790;BME280;37287;47.554;7.844;2022-11-14T14:08:52;97778.22;;;8.95;100.00
50790;BME280;37287;47.554;7.844;2022-11-14T14:17:31;97771.63;;;8.92;100.00
50790;BME280;37287;47.554;7.844;2022-11-14T14:30:17;97771.59;;;8.89;100.00
50790;BME280;37287;47.554;7.844;2022-11-14T14:35:30;97762.34;;;8.90;100.00
50790;BME280;37287;47.554;7.844;2022-11-14T14:38:11;97770.06;;;8.91;100.00